sensor_id;sensor_type;location;lat;lon;timestamp;P1;durP1;ratioP1;P2;durP2;ratioP2
14326;SDS011;7247;53.330;-1.180;2022-09-23T00:01:33;41.50;;;35.37;;
14326;SDS011;7247;53.330;-1.180;2022-09-23T00:04:00;40.00;;;35.13;;
14326;SDS011;7247;53.330;-1.180;2022-09-23T00:06:26;41.43;;;35.83;;
14326;SDS011;7247;53.330;-1.180;2022-09-23T00:08:54;41.97;;;36.43;;
14326;SDS011;7247;53.330;-1.180;2022-09-23T00:11:22;43.97;;;35.50;;
14326;SDS011;7247;53.330;-1.180;2022-09-23T00:13:49;40.93;;;35.93;;
14326;SDS011;7247;53.330;-1.180;2022-09-23T00:16:19;45.90;;;36.10;;
14326;SDS011;7247;53.330;-1.180;2022-09-23T00:18:46;43.77;;;36.90;;
14326;SDS011;7247;53.330;-1.180;2022-09-23T00:21:13;48.53;;;38.87;;
14326;SDS011;7247;53.330;-1.180;2022-09-23T00:23:40;50.97;;;42.03;;
14326;SDS011;7247;53.330;-1.180;2022-09-23T00:26:11;58.00;;;46.73;;
14326;SDS011;7247;53.330;-1.180;2022-09-23T00:28:39;60.57;;;47.90;;
14326;SDS011;7247;53.330;-1.180;2022-09-23T00:31:07;66.07;;;52.27;;
14326;SDS011;7247;53.330;-1.180;2022-09-23T00:33:33;62.57;;;51.33;;
14326;SDS011;7247;53.330;-1.180;2022-09-23T00:36:02;59.00;;;47.03;;
14326;SDS011;7247;53.330;-1.180;2022-09-23T00:38:29;56.87;;;44.47;;
14326;SDS011;7247;53.330;-1.180;2022-09-23T00:40:58;53.73;;;41.40;;
14326;SDS011;7247;53.330;-1.180;2022-09-23T00:43:36;44.07;;;36.67;;
14326;SDS011;7247;53.330;-1.180;2022-09-23T00:49:07;43.10;;;34.43;;
14326;SDS011;7247;53.330;-1.180;2022-09-23T00:51:37;40.87;;;32.70;;
14326;SDS011;7247;53.330;-1.180;2022-09-23T00:54:04;40.87;;;33.07;;
14326;SDS011;7247;53.330;-1.180;2022-09-23T00:56:32;39.93;;;32.67;;
14326;SDS011;7247;53.330;-1.180;2022-09-23T00:59:00;43.77;;;32.77;;
14326;SDS011;7247;53.330;-1.180;2022-09-23T01:01:27;40.73;;;32.33;;
14326;SDS011;7247;53.330;-1.180;2022-09-23T01:03:53;39.07;;;31.27;;
14326;SDS011;7247;53.330;-1.180;2022-09-23T01:06:22;41.47;;;32.93;;
14326;SDS011;7247;53.330;-1.180;2022-09-23T01:08:48;43.70;;;33.77;;
14326;SDS011;7247;53.330;-1.180;2022-09-23T01:14:08;46.23;;;33.30;;
14326;SDS011;7247;53.330;-1.180;2022-09-23T01:16:38;44.50;;;33.03;;
14326;SDS011;7247;53.330;-1.180;2022-09-23T01:19:10;45.97;;;32.63;;
14326;SDS011;7247;53.330;-1.180;2022-09-23T01:21:43;45.50;;;32.27;;
14326;SDS011;7247;53.330;-1.180;2022-09-23T01:24:28;41.37;;;31.43;;
14326;SDS011;7247;53.330;-1.180;2022-09-23T01:26:59;46.17;;;31.73;;
14326;SDS011;7247;53.330;-1.180;2022-09-23T01:32:14;44.33;;;31.43;;
14326;SDS011;7247;53.330;-1.180;2022-09-23T01:34:43;42.80;;;30.53;;
14326;SDS011;7247;53.330;-1.180;2022-09-23T01:37:16;39.57;;;29.50;;
14326;SDS011;7247;53.330;-1.180;2022-09-23T01:39:47;38.53;;;27.93;;
14326;SDS011;7247;53.330;-1.180;2022-09-23T01:42:20;38.60;;;27.67;;
14326;SDS011;7247;53.330;-1.180;2022-09-23T01:44:50;34.30;;;26.63;;
14326;SDS011;7247;53.330;-1.180;2022-09-23T01:47:21;37.30;;;25.90;;
14326;SDS011;7247;53.330;-1.180;2022-09-23T01:49:52;36.00;;;26.17;;
14326;SDS011;7247;53.330;-1.180;2022-09-23T01:52:23;33.53;;;24.80;;
14326;SDS011;7247;53.330;-1.180;2022-09-23T01:54:54;31.20;;;24.07;;
14326;SDS011;7247;53.330;-1.180;2022-09-23T01:57:23;30.77;;;23.80;;
14326;SDS011;7247;53.330;-1.180;2022-09-23T01:59:54;32.27;;;23.53;;
14326;SDS011;7247;53.330;-1.180;2022-09-23T02:02:22;33.37;;;23.87;;
14326;SDS011;7247;53.330;-1.180;2022-09-23T02:04:53;29.50;;;23.40;;
14326;SDS011;7247;53.330;-1.180;2022-09-23T02:07:22;27.67;;;21.13;;
14326;SDS011;7247;53.330;-1.180;2022-09-23T02:09:51;27.73;;;21.80;;
14326;SDS011;7247;53.330;-1.180;2022-09-23T02:12:19;29.67;;;22.80;;
14326;SDS011;7247;53.330;-1.180;2022-09-23T02:14:49;29.80;;;23.07;;
14326;SDS011;7247;53.330;-1.180;2022-09-23T02:17:21;30.70;;;23.17;;
14326;SDS011;7247;53.330;-1.180;2022-09-23T02:19:52;29.93;;;23.63;;
14326;SDS011;7247;53.330;-1.180;2022-09-23T02:22:20;35.23;;;24.57;;
14326;SDS011;7247;53.330;-1.180;2022-09-23T02:24:47;31.90;;;24.03;;
14326;SDS011;7247;53.330;-1.180;2022-09-23T02:27:17;31.43;;;23.97;;
14326;SDS011;7247;53.330;-1.180;2022-09-23T02:29:47;32.27;;;23.33;;
14326;SDS011;7247;53.330;-1.180;2022-09-23T02:32:16;34.83;;;23.23;;
14326;SDS011;7247;53.330;-1.180;2022-09-23T02:34:44;32.53;;;22.80;;
14326;SDS011;7247;53.330;-1.180;2022-09-23T02:37:17;31.40;;;22.40;;
14326;SDS011;7247;53.330;-1.180;2022-09-23T02:39:50;33.03;;;23.23;;
14326;SDS011;7247;53.330;-1.180;2022-09-23T02:42:19;34.03;;;24.43;;
14326;SDS011;7247;53.330;-1.180;2022-09-23T02:44:46;32.30;;;23.50;;
14326;SDS011;7247;53.330;-1.180;2022-09-23T02:47:13;35.20;;;24.90;;
14326;SDS011;7247;53.330;-1.180;2022-09-23T02:49:40;34.83;;;25.10;;
14326;SDS011;7247;53.330;-1.180;2022-09-23T02:52:07;37.00;;;24.67;;
14326;SDS011;7247;53.330;-1.180;2022-09-23T02:54:35;37.77;;;25.77;;
14326;SDS011;7247;53.330;-1.180;2022-09-23T02:57:03;40.53;;;26.77;;
14326;SDS011;7247;53.330;-1.180;2022-09-23T02:59:30;41.10;;;26.97;;
14326;SDS011;7247;53.330;-1.180;2022-09-23T03:02:02;44.87;;;28.87;;
14326;SDS011;7247;53.330;-1.180;2022-09-23T03:04:34;42.97;;;27.97;;
14326;SDS011;7247;53.330;-1.180;2022-09-23T03:07:04;44.77;;;27.97;;
14326;SDS011;7247;53.330;-1.180;2022-09-23T03:09:36;41.87;;;26.73;;
14326;SDS011;7247;53.330;-1.180;2022-09-23T03:12:08;40.10;;;26.13;;
14326;SDS011;7247;53.330;-1.180;2022-09-23T03:14:39;39.87;;;24.70;;
14326;SDS011;7247;53.330;-1.180;2022-09-23T03:17:09;34.07;;;22.37;;
14326;SDS011;7247;53.330;-1.180;2022-09-23T03:19:40;32.33;;;21.80;;
14326;SDS011;7247;53.330;-1.180;2022-09-23T03:22:09;30.43;;;21.50;;
14326;SDS011;7247;53.330;-1.180;2022-09-23T03:24:38;30.53;;;21.40;;
14326;SDS011;7247;53.330;-1.180;2022-09-23T03:27:10;28.60;;;20.97;;
14326;SDS011;7247;53.330;-1.180;2022-09-23T03:29:38;28.17;;;20.30;;
14326;SDS011;7247;53.330;-1.180;2022-09-23T03:32:06;23.83;;;18.10;;
14326;SDS011;7247;53.330;-1.180;2022-09-23T03:34:32;23.00;;;17.63;;
14326;SDS011;7247;53.330;-1.180;2022-09-23T03:37:02;22.73;;;17.53;;
14326;SDS011;7247;53.330;-1.180;2022-09-23T03:39:31;21.53;;;16.13;;
14326;SDS011;7247;53.330;-1.180;2022-09-23T03:42:02;21.80;;;14.67;;
14326;SDS011;7247;53.330;-1.180;2022-09-23T03:44:30;18.20;;;14.33;;
14326;SDS011;7247;53.330;-1.180;2022-09-23T03:47:02;18.33;;;13.40;;
14326;SDS011;7247;53.330;-1.180;2022-09-23T03:49:29;19.00;;;13.47;;
14326;SDS011;7247;53.330;-1.180;2022-09-23T03:51:57;16.60;;;13.70;;
14326;SDS011;7247;53.330;-1.180;2022-09-23T03:54:24;16.10;;;11.70;;
14326;SDS011;7247;53.330;-1.180;2022-09-23T03:56:54;14.33;;;11.03;;
14326;SDS011;7247;53.330;-1.180;2022-09-23T03:59:23;14.47;;;10.53;;
14326;SDS011;7247;53.330;-1.180;2022-09-23T04:01:49;13.43;;;10.37;;
14326;SDS011;7247;53.330;-1.180;2022-09-23T04:04:16;11.17;;;8.67;;
14326;SDS011;7247;53.330;-1.180;2022-09-23T04:06:42;10.70;;;9.30;;
14326;SDS011;7247;53.330;-1.180;2022-09-23T04:09:09;13.43;;;9.27;;
14326;SDS011;7247;53.330;-1.180;2022-09-23T04:11:35;12.50;;;8.93;;
14326;SDS011;7247;53.330;-1.180;2022-09-23T04:14:02;10.57;;;8.07;;
14326;SDS011;7247;53.330;-1.180;2022-09-23T04:16:33;12.10;;;7.43;;
14326;SDS011;7247;53.330;-1.180;2022-09-23T04:18:59;9.33;;;6.30;;
14326;SDS011;7247;53.330;-1.180;2022-09-23T04:21:26;9.63;;;6.17;;
14326;SDS011;7247;53.330;-1.180;2022-09-23T04:23:52;12.37;;;6.47;;
14326;SDS011;7247;53.330;-1.180;2022-09-23T04:26:20;12.50;;;6.40;;
14326;SDS011;7247;53.330;-1.180;2022-09-23T04:28:46;9.33;;;6.23;;
14326;SDS011;7247;53.330;-1.180;2022-09-23T04:31:13;7.60;;;5.90;;
14326;SDS011;7247;53.330;-1.180;2022-09-23T04:33:40;7.43;;;5.20;;
14326;SDS011;7247;53.330;-1.180;2022-09-23T04:36:08;7.93;;;5.03;;
14326;SDS011;7247;53.330;-1.180;2022-09-23T04:38:34;7.97;;;4.77;;
14326;SDS011;7247;53.330;-1.180;2022-09-23T04:41:01;9.33;;;5.40;;
14326;SDS011;7247;53.330;-1.180;2022-09-23T04:43:27;8.37;;;5.20;;
14326;SDS011;7247;53.330;-1.180;2022-09-23T04:45:58;6.87;;;4.87;;
14326;SDS011;7247;53.330;-1.180;2022-09-23T04:48:25;7.73;;;5.10;;
14326;SDS011;7247;53.330;-1.180;2022-09-23T04:50:53;9.27;;;5.03;;
14326;SDS011;7247;53.330;-1.180;2022-09-23T04:53:19;6.77;;;4.53;;
14326;SDS011;7247;53.330;-1.180;2022-09-23T04:58:16;5.63;;;4.00;;
14326;SDS011;7247;53.330;-1.180;2022-09-23T05:00:42;5.77;;;3.50;;
14326;SDS011;7247;53.330;-1.180;2022-09-23T05:03:09;6.27;;;3.77;;
14326;SDS011;7247;53.330;-1.180;2022-09-23T05:05:36;4.40;;;3.43;;
14326;SDS011;7247;53.330;-1.180;2022-09-23T05:08:04;5.63;;;3.30;;
14326;SDS011;7247;53.330;-1.180;2022-09-23T05:10:30;7.37;;;2.90;;
14326;SDS011;7247;53.330;-1.180;2022-09-23T05:12:57;7.00;;;3.00;;
14326;SDS011;7247;53.330;-1.180;2022-09-23T05:15:23;6.70;;;2.30;;
14326;SDS011;7247;53.330;-1.180;2022-09-23T05:17:50;4.10;;;1.97;;
14326;SDS011;7247;53.330;-1.180;2022-09-23T05:20:17;6.60;;;2.10;;
14326;SDS011;7247;53.330;-1.180;2022-09-23T05:22:43;7.17;;;2.40;;
14326;SDS011;7247;53.330;-1.180;2022-09-23T05:25:12;3.13;;;1.73;;
14326;SDS011;7247;53.330;-1.180;2022-09-23T05:27:38;6.60;;;2.23;;
14326;SDS011;7247;53.330;-1.180;2022-09-23T05:30:05;4.80;;;2.10;;
14326;SDS011;7247;53.330;-1.180;2022-09-23T05:32:32;7.37;;;2.47;;
14326;SDS011;7247;53.330;-1.180;2022-09-23T05:34:58;3.43;;;2.07;;
14326;SDS011;7247;53.330;-1.180;2022-09-23T05:37:25;5.53;;;2.20;;
14326;SDS011;7247;53.330;-1.180;2022-09-23T05:39:52;4.77;;;2.03;;
14326;SDS011;7247;53.330;-1.180;2022-09-23T05:42:19;6.83;;;2.27;;
14326;SDS011;7247;53.330;-1.180;2022-09-23T05:44:46;8.13;;;2.60;;
14326;SDS011;7247;53.330;-1.180;2022-09-23T05:47:13;4.50;;;2.00;;
14326;SDS011;7247;53.330;-1.180;2022-09-23T05:49:39;6.77;;;2.27;;
14326;SDS011;7247;53.330;-1.180;2022-09-23T05:52:06;4.40;;;2.53;;
14326;SDS011;7247;53.330;-1.180;2022-09-23T05:54:32;3.50;;;2.23;;
14326;SDS011;7247;53.330;-1.180;2022-09-23T05:57:00;5.00;;;2.33;;
14326;SDS011;7247;53.330;-1.180;2022-09-23T05:59:28;7.43;;;2.50;;
14326;SDS011;7247;53.330;-1.180;2022-09-23T06:01:55;7.63;;;2.53;;
14326;SDS011;7247;53.330;-1.180;2022-09-23T06:04:21;6.93;;;3.03;;
14326;SDS011;7247;53.330;-1.180;2022-09-23T06:06:49;7.23;;;2.60;;
14326;SDS011;7247;53.330;-1.180;2022-09-23T06:09:15;5.63;;;2.43;;
14326;SDS011;7247;53.330;-1.180;2022-09-23T06:11:42;7.47;;;2.77;;
14326;SDS011;7247;53.330;-1.180;2022-09-23T06:14:09;6.40;;;2.67;;
14326;SDS011;7247;53.330;-1.180;2022-09-23T06:16:39;5.20;;;2.80;;
14326;SDS011;7247;53.330;-1.180;2022-09-23T06:19:05;8.00;;;2.70;;
14326;SDS011;7247;53.330;-1.180;2022-09-23T06:21:32;6.53;;;2.50;;
14326;SDS011;7247;53.330;-1.180;2022-09-23T06:23:59;9.10;;;3.20;;
14326;SDS011;7247;53.330;-1.180;2022-09-23T06:26:26;8.90;;;2.40;;
14326;SDS011;7247;53.330;-1.180;2022-09-23T06:28:58;5.27;;;2.90;;
14326;SDS011;7247;53.330;-1.180;2022-09-23T06:31:25;6.73;;;2.70;;
14326;SDS011;7247;53.330;-1.180;2022-09-23T06:33:52;5.17;;;2.67;;
14326;SDS011;7247;53.330;-1.180;2022-09-23T06:36:20;6.20;;;2.73;;
14326;SDS011;7247;53.330;-1.180;2022-09-23T06:38:47;6.40;;;2.90;;
14326;SDS011;7247;53.330;-1.180;2022-09-23T06:41:14;5.63;;;2.80;;
14326;SDS011;7247;53.330;-1.180;2022-09-23T06:43:40;6.17;;;2.90;;
14326;SDS011;7247;53.330;-1.180;2022-09-23T06:46:08;6.67;;;3.30;;
14326;SDS011;7247;53.330;-1.180;2022-09-23T06:48:39;6.57;;;3.27;;
14326;SDS011;7247;53.330;-1.180;2022-09-23T06:51:08;7.60;;;3.30;;
14326;SDS011;7247;53.330;-1.180;2022-09-23T06:53:35;6.23;;;3.50;;
14326;SDS011;7247;53.330;-1.180;2022-09-23T06:56:05;6.30;;;3.40;;
14326;SDS011;7247;53.330;-1.180;2022-09-23T06:58:32;4.90;;;3.57;;
14326;SDS011;7247;53.330;-1.180;2022-09-23T07:00:59;8.33;;;3.50;;
14326;SDS011;7247;53.330;-1.180;2022-09-23T07:03:26;7.17;;;3.97;;
14326;SDS011;7247;53.330;-1.180;2022-09-23T07:05:53;7.97;;;4.07;;
14326;SDS011;7247;53.330;-1.180;2022-09-23T07:08:21;7.57;;;3.10;;
14326;SDS011;7247;53.330;-1.180;2022-09-23T07:10:49;7.00;;;3.60;;
14326;SDS011;7247;53.330;-1.180;2022-09-23T07:13:16;6.63;;;3.23;;
14326;SDS011;7247;53.330;-1.180;2022-09-23T07:15:47;5.83;;;2.97;;
14326;SDS011;7247;53.330;-1.180;2022-09-23T07:18:13;7.13;;;2.70;;
14326;SDS011;7247;53.330;-1.180;2022-09-23T07:20:40;5.77;;;2.53;;
14326;SDS011;7247;53.330;-1.180;2022-09-23T07:23:06;4.57;;;2.50;;
14326;SDS011;7247;53.330;-1.180;2022-09-23T07:25:34;5.27;;;2.43;;
14326;SDS011;7247;53.330;-1.180;2022-09-23T07:28:01;8.77;;;2.40;;
14326;SDS011;7247;53.330;-1.180;2022-09-23T07:30:27;4.80;;;2.40;;
14326;SDS011;7247;53.330;-1.180;2022-09-23T07:32:54;6.90;;;2.43;;
14326;SDS011;7247;53.330;-1.180;2022-09-23T07:35:20;7.63;;;2.37;;
14326;SDS011;7247;53.330;-1.180;2022-09-23T07:37:47;6.60;;;2.23;;
14326;SDS011;7247;53.330;-1.180;2022-09-23T07:40:15;4.70;;;2.27;;
14326;SDS011;7247;53.330;-1.180;2022-09-23T07:42:43;5.30;;;2.20;;
14326;SDS011;7247;53.330;-1.180;2022-09-23T07:45:09;3.53;;;2.00;;
14326;SDS011;7247;53.330;-1.180;2022-09-23T07:47:38;8.87;;;2.83;;
14326;SDS011;7247;53.330;-1.180;2022-09-23T07:50:05;8.17;;;3.10;;
14326;SDS011;7247;53.330;-1.180;2022-09-23T07:52:34;5.83;;;2.80;;
14326;SDS011;7247;53.330;-1.180;2022-09-23T07:55:01;8.37;;;3.20;;
14326;SDS011;7247;53.330;-1.180;2022-09-23T07:57:29;5.73;;;2.80;;
14326;SDS011;7247;53.330;-1.180;2022-09-23T07:59:57;5.10;;;2.27;;
14326;SDS011;7247;53.330;-1.180;2022-09-23T08:02:25;7.30;;;2.37;;
14326;SDS011;7247;53.330;-1.180;2022-09-23T08:04:51;3.17;;;2.00;;
14326;SDS011;7247;53.330;-1.180;2022-09-23T08:10:05;6.90;;;2.30;;
14326;SDS011;7247;53.330;-1.180;2022-09-23T08:12:33;6.43;;;2.00;;
14326;SDS011;7247;53.330;-1.180;2022-09-23T08:15:01;6.27;;;2.30;;
14326;SDS011;7247;53.330;-1.180;2022-09-23T08:17:28;4.90;;;1.87;;
14326;SDS011;7247;53.330;-1.180;2022-09-23T08:19:55;4.43;;;1.90;;
14326;SDS011;7247;53.330;-1.180;2022-09-23T08:22:21;6.00;;;2.00;;
14326;SDS011;7247;53.330;-1.180;2022-09-23T08:24:48;5.77;;;1.77;;
14326;SDS011;7247;53.330;-1.180;2022-09-23T08:27:14;5.37;;;1.93;;
14326;SDS011;7247;53.330;-1.180;2022-09-23T08:29:41;6.10;;;2.13;;
14326;SDS011;7247;53.330;-1.180;2022-09-23T08:32:08;4.13;;;1.90;;
14326;SDS011;7247;53.330;-1.180;2022-09-23T08:34:35;5.27;;;2.10;;
14326;SDS011;7247;53.330;-1.180;2022-09-23T08:37:02;9.80;;;2.10;;
14326;SDS011;7247;53.330;-1.180;2022-09-23T08:39:28;3.80;;;2.17;;
14326;SDS011;7247;53.330;-1.180;2022-09-23T08:42:00;8.70;;;2.43;;
14326;SDS011;7247;53.330;-1.180;2022-09-23T08:44:29;5.57;;;2.10;;
14326;SDS011;7247;53.330;-1.180;2022-09-23T08:47:00;5.37;;;2.20;;
14326;SDS011;7247;53.330;-1.180;2022-09-23T08:49:30;6.93;;;2.63;;
14326;SDS011;7247;53.330;-1.180;2022-09-23T08:51:58;7.60;;;2.40;;
14326;SDS011;7247;53.330;-1.180;2022-09-23T08:54:25;6.20;;;2.13;;
14326;SDS011;7247;53.330;-1.180;2022-09-23T08:56:56;4.53;;;1.87;;
14326;SDS011;7247;53.330;-1.180;2022-09-23T08:59:25;4.43;;;1.73;;
14326;SDS011;7247;53.330;-1.180;2022-09-23T09:01:55;5.63;;;1.60;;
14326;SDS011;7247;53.330;-1.180;2022-09-23T09:04:23;4.67;;;1.40;;
14326;SDS011;7247;53.330;-1.180;2022-09-23T09:06:55;4.97;;;1.70;;
14326;SDS011;7247;53.330;-1.180;2022-09-23T09:09:23;5.17;;;1.90;;
14326;SDS011;7247;53.330;-1.180;2022-09-23T09:11:51;5.73;;;1.80;;
14326;SDS011;7247;53.330;-1.180;2022-09-23T09:14:21;4.23;;;2.07;;
14326;SDS011;7247;53.330;-1.180;2022-09-23T09:16:55;4.17;;;1.73;;
14326;SDS011;7247;53.330;-1.180;2022-09-23T09:19:27;6.20;;;1.90;;
14326;SDS011;7247;53.330;-1.180;2022-09-23T09:21:58;3.03;;;1.53;;
14326;SDS011;7247;53.330;-1.180;2022-09-23T09:24:26;5.60;;;1.83;;
14326;SDS011;7247;53.330;-1.180;2022-09-23T09:26:55;5.03;;;1.60;;
14326;SDS011;7247;53.330;-1.180;2022-09-23T09:29:23;3.50;;;1.40;;
14326;SDS011;7247;53.330;-1.180;2022-09-23T09:31:50;3.27;;;1.57;;
14326;SDS011;7247;53.330;-1.180;2022-09-23T09:34:21;3.53;;;1.30;;
14326;SDS011;7247;53.330;-1.180;2022-09-23T09:36:53;4.80;;;1.70;;
14326;SDS011;7247;53.330;-1.180;2022-09-23T09:39:23;2.30;;;1.47;;
14326;SDS011;7247;53.330;-1.180;2022-09-23T09:41:50;2.50;;;1.47;;
14326;SDS011;7247;53.330;-1.180;2022-09-23T09:44:20;6.73;;;1.43;;
14326;SDS011;7247;53.330;-1.180;2022-09-23T09:46:52;3.93;;;1.70;;
14326;SDS011;7247;53.330;-1.180;2022-09-23T09:49:26;3.53;;;1.40;;
14326;SDS011;7247;53.330;-1.180;2022-09-23T09:52:18;4.80;;;1.80;;
14326;SDS011;7247;53.330;-1.180;2022-09-23T09:54:45;4.63;;;1.87;;
14326;SDS011;7247;53.330;-1.180;2022-09-23T09:57:16;6.40;;;1.73;;
14326;SDS011;7247;53.330;-1.180;2022-09-23T09:59:43;2.47;;;1.40;;
14326;SDS011;7247;53.330;-1.180;2022-09-23T10:02:16;3.93;;;1.40;;
14326;SDS011;7247;53.330;-1.180;2022-09-23T10:04:45;2.63;;;1.30;;
14326;SDS011;7247;53.330;-1.180;2022-09-23T10:07:23;2.63;;;1.30;;
14326;SDS011;7247;53.330;-1.180;2022-09-23T10:09:51;4.27;;;1.47;;
14326;SDS011;7247;53.330;-1.180;2022-09-23T10:12:19;4.00;;;1.50;;
14326;SDS011;7247;53.330;-1.180;2022-09-23T10:14:46;3.43;;;1.20;;
14326;SDS011;7247;53.330;-1.180;2022-09-23T10:17:17;2.77;;;1.23;;
14326;SDS011;7247;53.330;-1.180;2022-09-23T10:19:45;3.43;;;1.47;;
14326;SDS011;7247;53.330;-1.180;2022-09-23T10:22:17;2.67;;;1.47;;
14326;SDS011;7247;53.330;-1.180;2022-09-23T10:24:46;3.97;;;1.37;;
14326;SDS011;7247;53.330;-1.180;2022-09-23T10:27:14;4.47;;;1.47;;
14326;SDS011;7247;53.330;-1.180;2022-09-23T10:29:50;4.60;;;1.57;;
14326;SDS011;7247;53.330;-1.180;2022-09-23T10:32:25;3.93;;;1.60;;
14326;SDS011;7247;53.330;-1.180;2022-09-23T10:34:52;2.67;;;1.20;;
14326;SDS011;7247;53.330;-1.180;2022-09-23T10:37:21;3.93;;;1.30;;
14326;SDS011;7247;53.330;-1.180;2022-09-23T10:39:49;3.93;;;1.77;;
14326;SDS011;7247;53.330;-1.180;2022-09-23T10:42:38;3.67;;;1.50;;
14326;SDS011;7247;53.330;-1.180;2022-09-23T10:45:26;4.07;;;1.60;;
14326;SDS011;7247;53.330;-1.180;2022-09-23T10:50:55;4.97;;;1.53;;
14326;SDS011;7247;53.330;-1.180;2022-09-23T10:53:25;3.60;;;1.40;;
14326;SDS011;7247;53.330;-1.180;2022-09-23T10:56:05;4.00;;;1.43;;
14326;SDS011;7247;53.330;-1.180;2022-09-23T11:01:28;4.03;;;1.60;;
14326;SDS011;7247;53.330;-1.180;2022-09-23T11:04:07;3.23;;;1.40;;
14326;SDS011;7247;53.330;-1.180;2022-09-23T11:06:43;2.80;;;1.60;;
14326;SDS011;7247;53.330;-1.180;2022-09-23T11:09:17;4.30;;;1.73;;
14326;SDS011;7247;53.330;-1.180;2022-09-23T11:11:47;2.97;;;1.60;;
14326;SDS011;7247;53.330;-1.180;2022-09-23T11:19:50;4.53;;;1.63;;
14326;SDS011;7247;53.330;-1.180;2022-09-23T11:22:24;5.10;;;1.97;;
14326;SDS011;7247;53.330;-1.180;2022-09-23T11:25:06;2.73;;;1.40;;
14326;SDS011;7247;53.330;-1.180;2022-09-23T11:27:42;3.27;;;1.30;;
14326;SDS011;7247;53.330;-1.180;2022-09-23T11:30:12;2.97;;;1.30;;
14326;SDS011;7247;53.330;-1.180;2022-09-23T11:35:42;3.43;;;1.20;;
14326;SDS011;7247;53.330;-1.180;2022-09-23T11:38:14;4.20;;;1.20;;
14326;SDS011;7247;53.330;-1.180;2022-09-23T11:40:43;2.47;;;1.30;;
14326;SDS011;7247;53.330;-1.180;2022-09-23T11:43:17;3.43;;;1.43;;
14326;SDS011;7247;53.330;-1.180;2022-09-23T11:45:46;2.40;;;1.13;;
14326;SDS011;7247;53.330;-1.180;2022-09-23T11:48:16;3.70;;;1.20;;
14326;SDS011;7247;53.330;-1.180;2022-09-23T11:50:45;1.55;;;0.95;;
14326;SDS011;7247;53.330;-1.180;2022-09-23T11:53:17;4.00;;;1.10;;
14326;SDS011;7247;53.330;-1.180;2022-09-23T11:55:46;2.03;;;1.10;;
14326;SDS011;7247;53.330;-1.180;2022-09-23T11:58:15;2.65;;;1.15;;
14326;SDS011;7247;53.330;-1.180;2022-09-23T12:00:44;1.45;;;0.88;;
14326;SDS011;7247;53.330;-1.180;2022-09-23T12:03:13;4.97;;;0.98;;
14326;SDS011;7247;53.330;-1.180;2022-09-23T12:05:44;3.03;;;1.10;;
14326;SDS011;7247;53.330;-1.180;2022-09-23T12:08:14;2.47;;;1.10;;
14326;SDS011;7247;53.330;-1.180;2022-09-23T12:10:44;2.63;;;1.10;;
14326;SDS011;7247;53.330;-1.180;2022-09-23T12:13:16;4.33;;;1.30;;
14326;SDS011;7247;53.330;-1.180;2022-09-23T12:15:50;2.40;;;1.00;;
14326;SDS011;7247;53.330;-1.180;2022-09-23T12:18:31;2.00;;;1.10;;
14326;SDS011;7247;53.330;-1.180;2022-09-23T12:23:57;3.45;;;1.20;;
14326;SDS011;7247;53.330;-1.180;2022-09-23T12:26:27;2.60;;;1.10;;
14326;SDS011;7247;53.330;-1.180;2022-09-23T12:28:58;1.38;;;0.98;;
14326;SDS011;7247;53.330;-1.180;2022-09-23T12:31:25;3.72;;;1.10;;
14326;SDS011;7247;53.330;-1.180;2022-09-23T12:33:55;3.07;;;1.20;;
14326;SDS011;7247;53.330;-1.180;2022-09-23T12:36:24;3.23;;;1.13;;
14326;SDS011;7247;53.330;-1.180;2022-09-23T12:38:52;2.77;;;1.30;;
14326;SDS011;7247;53.330;-1.180;2022-09-23T12:41:22;2.33;;;1.10;;
14326;SDS011;7247;53.330;-1.180;2022-09-23T12:43:51;2.05;;;1.00;;
14326;SDS011;7247;53.330;-1.180;2022-09-23T12:46:21;3.13;;;1.02;;
14326;SDS011;7247;53.330;-1.180;2022-09-23T12:48:59;2.25;;;1.10;;
14326;SDS011;7247;53.330;-1.180;2022-09-23T12:51:26;2.40;;;1.30;;
14326;SDS011;7247;53.330;-1.180;2022-09-23T12:53:54;2.27;;;1.30;;
14326;SDS011;7247;53.330;-1.180;2022-09-23T12:56:42;4.07;;;1.10;;
14326;SDS011;7247;53.330;-1.180;2022-09-23T12:59:23;1.73;;;0.90;;
14326;SDS011;7247;53.330;-1.180;2022-09-23T13:01:50;4.88;;;1.27;;
14326;SDS011;7247;53.330;-1.180;2022-09-23T13:04:26;3.50;;;1.30;;
14326;SDS011;7247;53.330;-1.180;2022-09-23T13:07:13;2.67;;;1.30;;
14326;SDS011;7247;53.330;-1.180;2022-09-23T13:09:41;2.87;;;1.17;;
14326;SDS011;7247;53.330;-1.180;2022-09-23T13:12:14;2.35;;;1.02;;
14326;SDS011;7247;53.330;-1.180;2022-09-23T13:14:42;1.75;;;1.02;;
14326;SDS011;7247;53.330;-1.180;2022-09-23T13:17:20;2.90;;;1.13;;
14326;SDS011;7247;53.330;-1.180;2022-09-23T13:19:49;2.08;;;1.10;;
14326;SDS011;7247;53.330;-1.180;2022-09-23T13:25:07;2.00;;;1.23;;
14326;SDS011;7247;53.330;-1.180;2022-09-23T13:27:39;2.30;;;0.97;;
14326;SDS011;7247;53.330;-1.180;2022-09-23T13:30:16;1.73;;;0.90;;
14326;SDS011;7247;53.330;-1.180;2022-09-23T13:32:44;1.53;;;0.93;;
14326;SDS011;7247;53.330;-1.180;2022-09-23T13:35:14;1.50;;;0.90;;
14326;SDS011;7247;53.330;-1.180;2022-09-23T13:37:44;1.92;;;1.20;;
14326;SDS011;7247;53.330;-1.180;2022-09-23T13:40:15;2.65;;;1.10;;
14326;SDS011;7247;53.330;-1.180;2022-09-23T13:42:44;1.52;;;1.00;;
14326;SDS011;7247;53.330;-1.180;2022-09-23T13:45:13;2.25;;;1.02;;
14326;SDS011;7247;53.330;-1.180;2022-09-23T13:47:42;2.63;;;1.20;;
14326;SDS011;7247;53.330;-1.180;2022-09-23T13:50:19;1.83;;;1.00;;
14326;SDS011;7247;53.330;-1.180;2022-09-23T13:52:50;2.05;;;1.10;;
14326;SDS011;7247;53.330;-1.180;2022-09-23T13:55:24;3.83;;;1.30;;
14326;SDS011;7247;53.330;-1.180;2022-09-23T13:57:57;2.25;;;1.10;;
14326;SDS011;7247;53.330;-1.180;2022-09-23T14:00:24;2.80;;;1.08;;
14326;SDS011;7247;53.330;-1.180;2022-09-23T14:02:51;1.73;;;1.10;;
14326;SDS011;7247;53.330;-1.180;2022-09-23T14:05:20;2.10;;;1.10;;
14326;SDS011;7247;53.330;-1.180;2022-09-23T14:07:47;1.53;;;1.10;;
14326;SDS011;7247;53.330;-1.180;2022-09-23T14:10:13;3.23;;;1.20;;
14326;SDS011;7247;53.330;-1.180;2022-09-23T14:12:42;2.13;;;1.00;;
14326;SDS011;7247;53.330;-1.180;2022-09-23T14:17:45;3.00;;;1.30;;
14326;SDS011;7247;53.330;-1.180;2022-09-23T14:20:13;3.07;;;1.20;;
14326;SDS011;7247;53.330;-1.180;2022-09-23T14:22:39;4.07;;;1.23;;
14326;SDS011;7247;53.330;-1.180;2022-09-23T14:25:08;3.43;;;1.30;;
14326;SDS011;7247;53.330;-1.180;2022-09-23T14:27:38;2.30;;;1.20;;
14326;SDS011;7247;53.330;-1.180;2022-09-23T14:30:08;2.67;;;1.10;;
14326;SDS011;7247;53.330;-1.180;2022-09-23T14:32:38;1.60;;;1.00;;
14326;SDS011;7247;53.330;-1.180;2022-09-23T14:35:15;1.90;;;1.03;;
14326;SDS011;7247;53.330;-1.180;2022-09-23T14:37:43;2.50;;;1.00;;
14326;SDS011;7247;53.330;-1.180;2022-09-23T14:40:28;1.40;;;0.90;;
14326;SDS011;7247;53.330;-1.180;2022-09-23T14:42:56;2.13;;;1.10;;
14326;SDS011;7247;53.330;-1.180;2022-09-23T14:45:24;1.77;;;0.90;;
14326;SDS011;7247;53.330;-1.180;2022-09-23T14:47:55;1.43;;;0.90;;
14326;SDS011;7247;53.330;-1.180;2022-09-23T14:50:24;3.07;;;1.10;;
14326;SDS011;7247;53.330;-1.180;2022-09-23T14:56:06;1.57;;;0.80;;
14326;SDS011;7247;53.330;-1.180;2022-09-23T14:58:39;2.13;;;1.10;;
14326;SDS011;7247;53.330;-1.180;2022-09-23T15:01:17;1.90;;;1.00;;
14326;SDS011;7247;53.330;-1.180;2022-09-23T15:03:47;2.27;;;1.10;;
14326;SDS011;7247;53.330;-1.180;2022-09-23T15:06:15;1.57;;;1.00;;
14326;SDS011;7247;53.330;-1.180;2022-09-23T15:08:42;2.93;;;1.00;;
14326;SDS011;7247;53.330;-1.180;2022-09-23T15:11:09;0.80;;;0.73;;
14326;SDS011;7247;53.330;-1.180;2022-09-23T15:13:37;2.00;;;1.10;;
14326;SDS011;7247;53.330;-1.180;2022-09-23T15:18:52;2.30;;;1.30;;
14326;SDS011;7247;53.330;-1.180;2022-09-23T15:21:20;2.03;;;1.10;;
14326;SDS011;7247;53.330;-1.180;2022-09-23T15:23:48;1.83;;;0.97;;
14326;SDS011;7247;53.330;-1.180;2022-09-23T15:26:17;2.73;;;1.00;;
14326;SDS011;7247;53.330;-1.180;2022-09-23T15:28:45;1.23;;;1.03;;
14326;SDS011;7247;53.330;-1.180;2022-09-23T15:31:11;5.27;;;1.10;;
14326;SDS011;7247;53.330;-1.180;2022-09-23T15:33:39;3.33;;;1.10;;
14326;SDS011;7247;53.330;-1.180;2022-09-23T15:36:09;4.40;;;1.17;;